createdAt,value
2024-01-29T00:02:18.877Z,19.38
2024-01-29T00:04:45.910Z,17.97
2024-01-29T00:07:12.963Z,18.30
2024-01-29T00:09:40.026Z,19.30
2024-01-29T00:12:07.292Z,18.78
2024-01-29T00:14:34.280Z,18.78
2024-01-29T00:17:01.194Z,18.44
2024-01-29T00:19:28.230Z,21.28
2024-01-29T00:21:55.365Z,22.22
2024-01-29T00:24:22.821Z,23.07
2024-01-29T00:26:49.758Z,22.60
2024-01-29T00:29:16.683Z,23.55
2024-01-29T00:31:43.618Z,23.33
2024-01-29T00:34:10.739Z,23.99
2024-01-29T00:36:37.826Z,26.42
2024-01-29T00:39:04.765Z,23.49
2024-01-29T00:41:31.728Z,24.80
2024-01-29T00:43:58.700Z,23.64
2024-01-29T00:46:25.667Z,23.38
2024-01-29T00:48:52.693Z,26.01
2024-01-29T00:51:19.724Z,24.27
2024-01-29T00:53:46.677Z,23.65
2024-01-29T00:56:13.633Z,23.41
2024-01-29T00:58:40.575Z,24.19
2024-01-29T01:01:07.569Z,24.41
2024-01-29T01:03:34.745Z,23.34
2024-01-29T01:06:01.811Z,24.27
2024-01-29T01:08:28.778Z,24.29
2024-01-29T01:10:55.766Z,24.62
2024-01-29T01:13:22.728Z,24.56
2024-01-29T01:15:49.745Z,23.54
2024-01-29T01:18:16.973Z,23.32
2024-01-29T01:20:43.954Z,23.32
2024-01-29T01:23:11.905Z,23.79
2024-01-29T01:25:38.857Z,25.26
2024-01-29T01:28:06.161Z,25.42
2024-01-29T01:30:33.230Z,24.09
2024-01-29T01:33:00.188Z,24.73
2024-01-29T01:35:27.182Z,25.11
2024-01-29T01:37:54.108Z,25.11
2024-01-29T01:40:21.121Z,24.35
2024-01-29T01:42:48.165Z,24.90
2024-01-29T01:45:15.110Z,24.28
2024-01-29T01:47:42.622Z,25.09
2024-01-29T01:50:09.940Z,25.76
2024-01-29T01:52:37.113Z,24.94
2024-01-29T01:55:04.335Z,25.70
2024-01-29T01:57:31.438Z,25.67
2024-01-29T01:59:58.392Z,24.44
2024-01-29T02:02:25.387Z,25.28
2024-01-29T02:04:52.342Z,25.05
2024-01-29T02:07:19.530Z,25.27
2024-01-29T02:09:46.613Z,27.38
2024-01-29T02:12:13.620Z,26.48
2024-01-29T02:14:40.606Z,23.18
2024-01-29T02:17:07.387Z,23.64
2024-01-29T02:19:34.297Z,22.91
2024-01-29T02:22:01.358Z,22.62
2024-01-29T02:24:28.252Z,22.13
2024-01-29T02:26:55.025Z,22.18
2024-01-29T02:29:21.810Z,20.12
2024-01-29T02:31:48.613Z,18.40
2024-01-29T02:34:15.515Z,18.66
2024-01-29T02:36:44.614Z,18.81
2024-01-29T02:39:11.416Z,18.53
2024-01-29T02:41:38.190Z,19.02
2024-01-29T02:44:05.206Z,19.10
2024-01-29T02:46:32.070Z,19.83
2024-01-29T02:48:58.940Z,20.16
2024-01-29T02:51:25.807Z,19.59
2024-01-29T02:53:52.634Z,20.55
2024-01-29T02:56:19.394Z,20.37
2024-01-29T02:58:46.176Z,20.63
2024-01-29T03:01:13.054Z,21.00
2024-01-29T03:03:39.980Z,21.01
2024-01-29T03:06:07.251Z,23.03
2024-01-29T03:08:34.050Z,21.82
2024-01-29T03:11:00.829Z,22.26
2024-01-29T03:13:27.582Z,22.33
2024-01-29T03:15:54.568Z,22.09
2024-01-29T03:18:21.701Z,23.64
2024-01-29T03:20:48.773Z,23.90
2024-01-29T03:23:15.696Z,22.71
2024-01-29T03:25:42.647Z,23.15
2024-01-29T03:28:09.650Z,22.82
2024-01-29T03:30:36.608Z,22.50
2024-01-29T03:33:03.779Z,22.98
2024-01-29T03:35:30.789Z,22.71
2024-01-29T03:37:57.745Z,22.99
2024-01-29T03:40:24.687Z,23.43
2024-01-29T03:42:51.700Z,23.67
2024-01-29T03:45:18.648Z,23.14
2024-01-29T03:47:47.698Z,22.56
2024-01-29T03:50:14.693Z,23.14
2024-01-29T03:52:41.734Z,23.48
2024-01-29T03:55:08.850Z,23.84
2024-01-29T03:57:35.875Z,23.96
2024-01-29T04:00:22.859Z,23.78
2024-01-29T04:02:49.870Z,24.00
2024-01-29T04:05:17.845Z,24.91
2024-01-29T04:07:48.011Z,24.18
2024-01-29T04:10:15.029Z,24.10
2024-01-29T04:12:41.874Z,23.61
2024-01-29T04:15:08.890Z,24.10
2024-01-29T04:17:36.061Z,24.42
2024-01-29T04:20:06.405Z,23.78
2024-01-29T04:22:33.763Z,24.72
2024-01-29T04:25:05.200Z,23.45
2024-01-29T04:27:32.082Z,23.35
2024-01-29T04:29:58.866Z,24.16
2024-01-29T04:32:25.689Z,24.18
2024-01-29T04:34:53.954Z,24.24
2024-01-29T04:37:20.776Z,24.29
2024-01-29T04:39:47.644Z,25.20
2024-01-29T04:42:15.036Z,25.15
2024-01-29T04:44:41.852Z,24.33
2024-01-29T04:47:08.624Z,24.67
2024-01-29T04:49:35.434Z,23.98
2024-01-29T04:52:02.297Z,25.30
2024-01-29T04:54:29.155Z,25.11
2024-01-29T04:56:55.909Z,25.47
2024-01-29T04:59:23.064Z,25.78
2024-01-29T05:01:50.032Z,26.61
2024-01-29T05:04:17.071Z,25.48
2024-01-29T05:06:44.076Z,25.91
2024-01-29T05:09:10.852Z,25.63
2024-01-29T05:11:37.624Z,25.13
2024-01-29T05:14:04.421Z,25.13
2024-01-29T05:16:31.180Z,24.40
2024-01-29T05:18:58.020Z,24.68
2024-01-29T05:21:24.873Z,23.61
2024-01-29T05:23:51.703Z,24.30
2024-01-29T05:26:18.483Z,24.17
2024-01-29T05:28:45.250Z,24.12
2024-01-29T05:31:12.063Z,24.39
2024-01-29T05:33:38.971Z,24.44
2024-01-29T05:36:06.106Z,24.72
2024-01-29T05:38:32.878Z,24.77
2024-01-29T05:40:59.666Z,24.24
2024-01-29T05:43:26.552Z,23.85
2024-01-29T05:45:53.379Z,24.48
2024-01-29T05:48:20.269Z,24.55
2024-01-29T05:50:47.073Z,25.73
2024-01-29T05:53:13.834Z,25.10
2024-01-29T05:55:40.672Z,25.35
2024-01-29T05:58:07.551Z,25.63
2024-01-29T06:00:34.499Z,25.26
2024-01-29T06:03:01.493Z,24.91
2024-01-29T06:05:28.369Z,24.80
2024-01-29T06:07:55.513Z,24.32
2024-01-29T06:10:22.624Z,23.66
2024-01-29T06:12:49.990Z,23.89
2024-01-29T06:15:16.972Z,30.69
2024-01-29T06:17:44.181Z,25.04
2024-01-29T06:20:17.418Z,25.56
2024-01-29T06:22:46.862Z,24.39
2024-01-29T06:25:13.956Z,24.11
2024-01-29T06:27:41.270Z,24.53
2024-01-29T06:30:08.429Z,24.15
2024-01-29T06:32:35.405Z,25.64
2024-01-29T06:35:02.548Z,23.68
2024-01-29T06:37:29.645Z,23.53
2024-01-29T06:39:56.664Z,24.48
2024-01-29T06:42:24.385Z,23.72
2024-01-29T06:44:51.377Z,23.67
2024-01-29T06:47:18.313Z,24.07
2024-01-29T06:49:45.294Z,24.18
2024-01-29T06:52:15.715Z,25.90
2024-01-29T06:54:45.939Z,24.25
2024-01-29T06:57:14.568Z,24.49
2024-01-29T06:59:41.640Z,24.02
2024-01-29T07:02:08.652Z,22.80
2024-01-29T07:04:35.868Z,24.60
2024-01-29T07:07:03.029Z,22.02
2024-01-29T07:09:30.712Z,22.56
2024-01-29T07:11:59.298Z,25.47
2024-01-29T07:14:26.384Z,25.61
2024-01-29T07:16:53.436Z,26.59
2024-01-29T07:19:20.561Z,26.12
2024-01-29T07:21:47.608Z,24.38
2024-01-29T07:24:14.580Z,24.65
2024-01-29T07:26:41.514Z,23.85
2024-01-29T07:29:08.438Z,24.20
2024-01-29T07:31:36.199Z,24.69
2024-01-29T07:34:03.456Z,24.96
2024-01-29T07:36:30.741Z,25.48
2024-01-29T07:38:57.697Z,24.79
2024-01-29T07:41:24.688Z,25.56
2024-01-29T07:43:51.623Z,26.54
2024-01-29T07:46:18.616Z,26.03
2024-01-29T07:48:45.624Z,26.26
2024-01-29T07:51:12.597Z,26.64
2024-01-29T07:53:39.572Z,26.64
2024-01-29T07:56:06.775Z,26.25
2024-01-29T07:58:33.757Z,27.89
2024-01-29T08:01:00.906Z,28.73
2024-01-29T08:03:28.092Z,28.09
2024-01-29T08:06:15.118Z,26.08
2024-01-29T08:08:42.211Z,24.99
2024-01-29T08:11:11.170Z,37.08
2024-01-29T08:13:39.350Z,22.85
2024-01-29T08:16:06.176Z,22.97
2024-01-29T08:18:33.191Z,22.34
2024-01-29T08:21:00.302Z,22.37
2024-01-29T08:23:27.164Z,22.38
2024-01-29T08:25:53.972Z,22.81
2024-01-29T08:28:20.766Z,21.19
2024-01-29T08:30:47.524Z,21.37
2024-01-29T08:33:18.322Z,21.71
2024-01-29T08:35:45.139Z,21.48
2024-01-29T08:38:12.332Z,25.20
2024-01-29T08:40:39.193Z,26.30
2024-01-29T08:43:06.164Z,27.01
2024-01-29T08:45:33.137Z,26.42
2024-01-29T08:48:00.106Z,26.50
2024-01-29T08:50:26.984Z,25.30
2024-01-29T08:52:56.101Z,26.63
2024-01-29T08:55:23.269Z,27.41
2024-01-29T08:57:50.106Z,26.58
2024-01-29T09:00:17.074Z,26.05
2024-01-29T09:02:44.679Z,25.47
2024-01-29T09:05:11.520Z,25.09
2024-01-29T09:07:39.492Z,25.48
2024-01-29T09:10:07.172Z,26.35
2024-01-29T09:12:34.151Z,26.81
2024-01-29T09:15:01.100Z,26.85
2024-01-29T09:17:28.056Z,27.04
2024-01-29T09:19:55.126Z,27.06
2024-01-29T09:22:22.130Z,26.78
2024-01-29T09:24:49.130Z,28.70
2024-01-29T09:27:16.064Z,27.72
2024-01-29T09:29:43.024Z,28.60
2024-01-29T09:32:10.349Z,29.68
2024-01-29T09:34:37.422Z,30.32
2024-01-29T09:37:05.521Z,29.24
2024-01-29T09:39:32.510Z,29.77
2024-01-29T09:42:03.464Z,30.46
2024-01-29T09:44:39.180Z,31.57
2024-01-29T09:47:08.950Z,31.64
2024-01-29T09:49:36.122Z,33.45
2024-01-29T09:52:10.850Z,33.36
2024-01-29T09:54:37.967Z,34.05
2024-01-29T09:57:05.182Z,33.96
2024-01-29T09:59:32.143Z,35.12
2024-01-29T10:01:59.936Z,36.77
2024-01-29T10:04:27.088Z,35.14
2024-01-29T10:06:54.363Z,36.29
2024-01-29T10:09:21.339Z,37.55
2024-01-29T10:11:49.553Z,37.10
2024-01-29T10:14:17.000Z,36.73
2024-01-29T10:16:44.080Z,37.55
2024-01-29T10:19:11.092Z,36.22
2024-01-29T10:21:38.758Z,36.15
2024-01-29T10:24:05.993Z,34.67
2024-01-29T10:26:32.928Z,34.89
2024-01-29T10:29:03.775Z,34.52
2024-01-29T10:31:31.242Z,34.60
2024-01-29T10:33:58.932Z,35.88
2024-01-29T10:36:26.082Z,35.56
2024-01-29T10:38:53.998Z,35.28
2024-01-29T10:41:20.959Z,34.35
2024-01-29T10:43:48.856Z,34.25
2024-01-29T10:46:18.988Z,34.73
2024-01-29T10:48:46.207Z,36.45
2024-01-29T10:51:16.765Z,34.80
2024-01-29T10:53:44.499Z,34.84
2024-01-29T10:56:11.772Z,34.53
2024-01-29T10:58:39.321Z,33.80
2024-01-29T11:01:06.647Z,31.94
2024-01-29T11:03:36.946Z,31.63
2024-01-29T11:06:07.596Z,27.79
2024-01-29T11:08:35.099Z,30.33
2024-01-29T11:11:04.917Z,33.65
2024-01-29T11:13:32.642Z,32.96
2024-01-29T11:15:59.909Z,32.94
2024-01-29T11:18:31.975Z,33.76
2024-01-29T11:20:58.951Z,35.12
2024-01-29T11:23:30.841Z,35.94
2024-01-29T11:25:59.432Z,35.91
2024-01-29T11:28:29.360Z,34.77
2024-01-29T11:30:56.484Z,35.29
2024-01-29T11:33:24.635Z,34.27
2024-01-29T11:35:51.633Z,34.37
2024-01-29T11:38:21.670Z,34.53
2024-01-29T11:40:48.637Z,33.26
2024-01-29T11:43:17.155Z,33.26
2024-01-29T11:45:51.315Z,33.79
2024-01-29T11:48:20.828Z,40.88
2024-01-29T11:50:52.522Z,35.77
2024-01-29T11:53:21.440Z,31.84
2024-01-29T11:55:49.197Z,24.78
2024-01-29T11:58:20.660Z,26.82
2024-01-29T12:00:51.483Z,36.02
2024-01-29T12:03:23.412Z,27.10
2024-01-29T12:05:50.682Z,26.14
2024-01-29T12:08:19.151Z,28.17
2024-01-29T12:10:46.802Z,26.87
2024-01-29T12:13:18.092Z,23.29
2024-01-29T12:15:45.597Z,22.38
2024-01-29T12:18:23.062Z,23.06
2024-01-29T12:20:51.728Z,22.49
2024-01-29T12:23:19.448Z,26.05
2024-01-29T12:25:46.786Z,27.18
2024-01-29T12:28:13.905Z,27.08
2024-01-29T12:30:40.920Z,29.53
2024-01-29T12:33:07.993Z,30.19
2024-01-29T12:35:35.263Z,29.81
2024-01-29T12:38:05.974Z,31.00
2024-01-29T12:40:33.261Z,30.73
2024-01-29T12:43:01.274Z,31.31
2024-01-29T12:45:28.446Z,31.59
2024-01-29T12:48:14.333Z,32.16
2024-01-29T12:50:41.911Z,31.59
2024-01-29T12:53:10.603Z,34.40
2024-01-29T12:55:38.519Z,33.13
2024-01-29T12:58:05.585Z,40.03
2024-01-29T13:00:32.797Z,34.23
2024-01-29T13:03:02.006Z,33.04
2024-01-29T13:05:32.319Z,32.19
2024-01-29T13:07:59.440Z,30.83
2024-01-29T13:10:26.919Z,29.01
2024-01-29T13:12:54.325Z,30.33
2024-01-29T13:15:21.872Z,29.51
2024-01-29T13:17:49.084Z,43.43
2024-01-29T13:20:16.094Z,31.13
2024-01-29T13:22:43.058Z,30.65
2024-01-29T13:25:10.159Z,29.21
2024-01-29T13:27:37.404Z,29.35
2024-01-29T13:30:04.666Z,30.04
2024-01-29T13:32:31.767Z,29.67
2024-01-29T13:34:58.863Z,30.56
2024-01-29T13:37:27.935Z,28.94
2024-01-29T13:39:54.983Z,29.21
2024-01-29T13:42:22.008Z,28.52
2024-01-29T13:44:48.961Z,29.86
2024-01-29T13:47:15.926Z,29.01
2024-01-29T13:49:42.933Z,29.19
2024-01-29T13:52:10.021Z,29.26
2024-01-29T13:54:37.015Z,29.27
2024-01-29T13:57:04.148Z,29.93
2024-01-29T13:59:31.097Z,31.15
2024-01-29T14:01:58.099Z,30.64
2024-01-29T14:04:25.161Z,30.20
2024-01-29T14:06:58.744Z,31.62
2024-01-29T14:09:26.283Z,29.94
2024-01-29T14:11:53.201Z,30.63
2024-01-29T14:14:23.518Z,29.68
2024-01-29T14:16:52.305Z,32.16
2024-01-29T14:19:19.511Z,31.60
2024-01-29T14:21:46.575Z,31.31
2024-01-29T14:24:13.497Z,30.23
2024-01-29T14:26:41.888Z,30.94
2024-01-29T14:29:08.817Z,29.18
2024-01-29T14:31:37.936Z,29.53
2024-01-29T14:34:05.100Z,32.60
2024-01-29T14:36:32.135Z,32.87
2024-01-29T14:38:59.173Z,31.99
2024-01-29T14:41:28.294Z,30.95
2024-01-29T14:43:55.310Z,31.26
2024-01-29T14:46:25.292Z,32.81
2024-01-29T14:48:52.175Z,29.25
2024-01-29T14:51:19.117Z,26.84
2024-01-29T14:53:46.168Z,24.29
2024-01-29T14:56:13.023Z,23.58
2024-01-29T14:58:39.813Z,25.07
2024-01-29T15:01:06.710Z,24.50
2024-01-29T15:03:33.738Z,23.17
2024-01-29T15:06:00.818Z,21.52
2024-01-29T15:08:27.942Z,21.87
2024-01-29T15:10:54.771Z,23.92
2024-01-29T15:13:21.569Z,24.18
2024-01-29T15:15:48.388Z,26.06
2024-01-29T15:18:15.184Z,24.25
2024-01-29T15:20:43.216Z,24.54
2024-01-29T15:23:11.149Z,24.05
2024-01-29T15:25:37.934Z,24.09
2024-01-29T15:28:06.884Z,22.27
2024-01-29T15:30:34.261Z,24.07
2024-01-29T15:33:01.211Z,21.58
2024-01-29T15:35:28.028Z,21.72
2024-01-29T15:37:54.812Z,21.21
2024-01-29T15:40:21.650Z,19.55
2024-01-29T15:42:48.522Z,18.61
2024-01-29T15:45:15.427Z,18.33
2024-01-29T15:47:42.395Z,18.55
2024-01-29T15:50:09.693Z,17.50
2024-01-29T15:52:36.764Z,17.37
2024-01-29T15:55:04.464Z,17.20
2024-01-29T15:57:31.444Z,17.38
2024-01-29T15:59:58.374Z,16.90
2024-01-29T16:02:25.296Z,17.31
2024-01-29T16:04:52.278Z,17.27
2024-01-29T16:07:20.758Z,16.99
2024-01-29T16:09:47.833Z,16.35
2024-01-29T16:12:14.791Z,16.29
2024-01-29T16:14:41.832Z,17.59
2024-01-29T16:17:08.770Z,17.84
2024-01-29T16:19:38.524Z,16.67
2024-01-29T16:22:05.631Z,17.50
2024-01-29T16:24:32.652Z,17.93
2024-01-29T16:26:59.675Z,17.73
2024-01-29T16:29:28.599Z,18.87
2024-01-29T16:31:55.544Z,19.35
2024-01-29T16:34:22.578Z,20.73
2024-01-29T16:36:50.116Z,21.30
2024-01-29T16:39:19.481Z,20.97
2024-01-29T16:41:46.404Z,21.30
2024-01-29T16:44:13.390Z,20.00
2024-01-29T16:46:43.450Z,19.86
2024-01-29T16:49:10.516Z,19.73
2024-01-29T16:51:37.547Z,19.67
2024-01-29T16:54:04.489Z,19.92
2024-01-29T16:56:31.747Z,18.04
2024-01-29T16:59:00.759Z,17.07
2024-01-29T17:01:28.275Z,17.90
2024-01-29T17:03:55.376Z,17.64
2024-01-29T17:06:22.440Z,20.08
2024-01-29T17:08:50.436Z,20.44
2024-01-29T17:11:17.467Z,20.20
2024-01-29T17:13:44.721Z,18.33
2024-01-29T17:16:12.034Z,18.65
2024-01-29T17:18:39.216Z,17.90
2024-01-29T17:21:06.487Z,18.87
2024-01-29T17:23:33.450Z,18.35
2024-01-29T17:26:00.389Z,19.12
2024-01-29T17:28:27.689Z,18.69
2024-01-29T17:30:54.626Z,18.90
2024-01-29T17:33:21.702Z,18.44
2024-01-29T17:35:48.667Z,20.19
2024-01-29T17:38:15.629Z,18.34
2024-01-29T17:40:42.562Z,18.69
2024-01-29T17:43:09.618Z,17.14
2024-01-29T17:45:37.679Z,16.37
2024-01-29T17:48:05.592Z,15.30
2024-01-29T17:50:32.569Z,15.29
2024-01-29T17:53:00.115Z,14.71
2024-01-29T17:55:27.085Z,15.08
2024-01-29T17:57:54.107Z,14.13
2024-01-29T18:00:22.112Z,13.97
2024-01-29T18:02:49.101Z,14.59
2024-01-29T18:05:19.343Z,14.33
2024-01-29T18:07:46.461Z,15.31
2024-01-29T18:10:13.550Z,18.02
2024-01-29T18:12:40.535Z,20.11
2024-01-29T18:15:07.607Z,16.95
2024-01-29T18:17:34.667Z,14.98
2024-01-29T18:20:02.071Z,19.47
2024-01-29T18:22:29.106Z,18.20
2024-01-29T18:24:56.340Z,19.71
2024-01-29T18:27:23.455Z,17.66
2024-01-29T18:29:50.393Z,16.51
2024-01-29T18:32:17.342Z,16.89
2024-01-29T18:34:44.533Z,17.49
2024-01-29T18:37:11.609Z,18.49
2024-01-29T18:39:38.645Z,19.01
2024-01-29T18:42:05.810Z,17.85
2024-01-29T18:44:34.014Z,17.99
2024-01-29T18:47:01.057Z,16.70
2024-01-29T18:49:28.223Z,17.98
2024-01-29T18:52:06.134Z,18.57
2024-01-29T18:54:33.510Z,17.57
2024-01-29T18:57:00.535Z,15.95
2024-01-29T18:59:27.833Z,15.13
2024-01-29T19:01:54.882Z,16.24
2024-01-29T19:04:22.016Z,17.82
2024-01-29T19:06:50.584Z,17.55
2024-01-29T19:09:17.589Z,15.90
2024-01-29T19:11:44.523Z,15.44
2024-01-29T19:14:12.717Z,15.87
2024-01-29T19:16:42.095Z,20.47
2024-01-29T19:19:09.209Z,16.45
2024-01-29T19:21:36.282Z,15.92
2024-01-29T19:24:03.350Z,14.27
2024-01-29T19:26:30.682Z,15.92
2024-01-29T19:28:57.815Z,17.25
2024-01-29T19:31:25.231Z,17.12
2024-01-29T19:33:52.333Z,16.55
2024-01-29T19:36:20.352Z,19.41
2024-01-29T19:38:47.299Z,18.07
2024-01-29T19:41:14.241Z,18.57
2024-01-29T19:43:41.181Z,17.41
2024-01-29T19:46:08.195Z,19.24
2024-01-29T19:48:37.661Z,22.74
2024-01-29T19:51:05.294Z,20.44
2024-01-29T19:53:32.290Z,19.61
2024-01-29T19:55:59.396Z,19.71
2024-01-29T19:58:26.367Z,17.67
2024-01-29T20:00:53.406Z,17.59
2024-01-29T20:03:20.398Z,17.83
2024-01-29T20:05:47.524Z,18.29
2024-01-29T20:08:14.704Z,19.61
2024-01-29T20:10:41.656Z,21.64
2024-01-29T20:13:09.083Z,21.31
2024-01-29T20:15:36.154Z,25.49
2024-01-29T20:18:03.457Z,21.57
2024-01-29T20:20:30.582Z,22.40
2024-01-29T20:22:57.538Z,21.18
2024-01-29T20:25:27.619Z,22.34
2024-01-29T20:27:56.339Z,33.00
2024-01-29T20:30:23.139Z,23.35
2024-01-29T20:32:49.959Z,24.57
2024-01-29T20:35:17.053Z,22.60
2024-01-29T20:37:44.203Z,23.71
2024-01-29T20:40:11.147Z,39.85
2024-01-29T20:42:38.103Z,22.91
2024-01-29T20:45:05.058Z,22.33
2024-01-29T20:47:31.933Z,26.13
2024-01-29T20:49:58.902Z,25.10
2024-01-29T20:52:25.992Z,22.60
2024-01-29T20:54:53.937Z,22.84
2024-01-29T20:57:22.490Z,23.81
2024-01-29T20:59:49.343Z,22.45
2024-01-29T21:02:16.795Z,20.01
2024-01-29T21:04:43.893Z,20.31
2024-01-29T21:07:10.823Z,19.42
2024-01-29T21:09:38.311Z,20.16
2024-01-29T21:12:06.567Z,19.87
2024-01-29T21:14:33.359Z,19.10
2024-01-29T21:17:01.530Z,19.97
2024-01-29T21:19:28.739Z,20.99
2024-01-29T21:21:55.918Z,20.78
2024-01-29T21:24:24.062Z,20.60
2024-01-29T21:26:50.905Z,19.98
2024-01-29T21:29:18.909Z,20.42
2024-01-29T21:31:45.872Z,20.84
2024-01-29T21:34:13.044Z,20.52
2024-01-29T21:36:40.160Z,21.71
2024-01-29T21:39:07.354Z,19.26
2024-01-29T21:41:34.368Z,19.87
2024-01-29T21:44:02.464Z,19.88
2024-01-29T21:46:29.394Z,18.47
2024-01-29T21:48:56.791Z,19.25
2024-01-29T21:51:26.814Z,20.99
2024-01-29T21:53:53.781Z,20.16
2024-01-29T21:56:20.765Z,19.87
2024-01-29T21:58:47.695Z,19.76
2024-01-29T22:01:14.722Z,19.10
2024-01-29T22:03:41.844Z,19.26
2024-01-29T22:06:08.992Z,20.75
2024-01-29T22:08:35.954Z,19.13
2024-01-29T22:11:02.866Z,19.42
2024-01-29T22:13:29.833Z,20.54
2024-01-29T22:15:56.829Z,19.88
2024-01-29T22:18:23.837Z,20.24
2024-01-29T22:21:03.080Z,20.08
2024-01-29T22:23:30.153Z,23.76
2024-01-29T22:25:57.154Z,20.88
2024-01-29T22:28:24.610Z,20.20
2024-01-29T22:30:51.617Z,20.80
2024-01-29T22:33:18.733Z,21.54
2024-01-29T22:35:45.699Z,20.94
2024-01-29T22:38:13.609Z,20.61
2024-01-29T22:40:40.703Z,18.52
2024-01-29T22:43:07.839Z,18.87
2024-01-29T22:45:35.321Z,21.07
2024-01-29T22:48:02.598Z,19.71
2024-01-29T22:50:29.564Z,20.64
2024-01-29T22:52:56.479Z,21.52
2024-01-29T22:55:23.596Z,20.85
2024-01-29T22:57:50.745Z,20.75
2024-01-29T23:00:18.015Z,21.64
2024-01-29T23:02:44.948Z,21.13
2024-01-29T23:05:15.036Z,23.26
2024-01-29T23:07:41.980Z,24.78
2024-01-29T23:10:09.287Z,24.33
2024-01-29T23:12:36.608Z,22.55
2024-01-29T23:15:04.063Z,23.18
2024-01-29T23:17:31.066Z,22.47
2024-01-29T23:19:58.017Z,21.60
2024-01-29T23:22:25.064Z,20.88
2024-01-29T23:24:52.060Z,21.80
2024-01-29T23:27:19.218Z,20.90
2024-01-29T23:29:46.163Z,21.24
2024-01-29T23:32:13.107Z,20.30
2024-01-29T23:34:40.050Z,21.57
2024-01-29T23:37:10.028Z,21.61
2024-01-29T23:39:37.122Z,21.11
2024-01-29T23:42:04.241Z,22.07
2024-01-29T23:44:31.248Z,21.93
2024-01-29T23:46:58.193Z,22.79
2024-01-29T23:49:25.260Z,25.92
2024-01-29T23:51:52.285Z,23.34
2024-01-29T23:54:19.243Z,22.37
2024-01-29T23:56:46.182Z,22.91
2024-01-29T23:59:13.117Z,22.60
